Time;durP1;ratioP1;P1;durP2;ratioP2;P2;SDS_P1;SDS_P2;PMS_P1;PMS_P2;Temp;Humidity;BMP_temperature;BMP_pressure;BME280_temperature;BME280_humidity;BME280_pressure;Samples;Min_cycle;Max_cycle;Signal;HPM_P1;HPM_P2
2023/12/07 00:01:11;;;;;;;0.00;0.00;;;2.80;99.90;;;;;;5094855;28;20632;-66
2023/12/07 00:03:36;;;;;;;0.03;0.03;;;2.80;99.90;;;;;;5096834;28;20237;-66
2023/12/07 00:06:02;;;;;;;0.10;0.10;;;2.90;99.90;;;;;;5098247;28;20187;-67
2023/12/07 00:08:27;;;;;;;0.28;0.28;;;2.90;99.90;;;;;;5096039;28;20224;-67
2023/12/07 00:10:53;;;;;;;0.30;0.30;;;2.90;99.90;;;;;;5113060;28;20207;-67
2023/12/07 00:13:18;;;;;;;0.15;0.15;;;2.90;99.90;;;;;;5112676;28;20180;-68
2023/12/07 00:15:44;;;;;;;0.63;0.63;;;2.80;99.90;;;;;;5093747;28;20517;-67
2023/12/07 00:18:09;;;;;;;0.20;0.20;;;2.90;99.90;;;;;;5093761;28;20707;-67
2023/12/07 00:20:35;;;;;;;0.00;0.00;;;2.90;99.90;;;;;;5109024;28;20221;-66
2023/12/07 00:23:01;;;;;;;0.00;0.00;;;2.90;99.90;;;;;;5107782;28;20655;-66
2023/12/07 00:25:26;;;;;;;0.00;0.00;;;2.90;99.90;;;;;;5097541;28;20199;-66
2023/12/07 00:27:52;;;;;;;0.00;0.00;;;2.90;99.90;;;;;;5095481;28;20183;-66
2023/12/07 00:30:17;;;;;;;0.00;0.00;;;2.90;99.90;;;;;;5097823;28;20167;-67
2023/12/07 00:32:43;;;;;;;0.20;0.20;;;2.90;99.90;;;;;;5110249;28;20208;-66
2023/12/07 00:35:10;;;;;;;0.00;0.00;;;3.00;99.90;;;;;;5100756;28;20220;-66
2023/12/07 00:37:35;;;;;;;0.00;0.00;;;3.00;99.90;;;;;;5102626;28;20608;-66
2023/12/07 00:40:01;;;;;;;0.17;0.17;;;3.00;99.90;;;;;;5107628;28;20186;-66
2023/12/07 00:42:27;;;;;;;0.00;0.00;;;3.00;99.90;;;;;;5095620;28;20535;-67
2023/12/07 00:44:53;;;;;;;0.47;0.15;;;3.00;99.90;;;;;;5094465;28;20176;-67
2023/12/07 00:47:19;;;;;;;0.00;0.00;;;3.00;99.90;;;;;;5101700;28;20239;-66
2023/12/07 00:49:44;;;;;;;0.00;0.00;;;3.00;99.90;;;;;;5113509;28;20652;-66
2023/12/07 00:52:10;;;;;;;0.10;0.10;;;2.90;99.90;;;;;;5109815;28;20219;-66
2023/12/07 00:54:35;;;;;;;0.00;0.00;;;3.00;99.90;;;;;;5096409;28;20225;-66
2023/12/07 00:57:01;;;;;;;0.30;0.30;;;3.00;99.90;;;;;;5108449;28;20269;-66
2023/12/07 00:59:26;;;;;;;0.00;0.00;;;3.00;99.90;;;;;;5109255;28;20628;-67
2023/12/07 01:01:52;;;;;;;0.00;0.00;;;3.00;99.90;;;;;;5103987;28;20666;-67
2023/12/07 01:04:17;;;;;;;0.08;0.08;;;3.00;99.90;;;;;;5096723;28;20191;-66
2023/12/07 01:06:43;;;;;;;0.00;0.00;;;3.00;99.90;;;;;;5109285;28;20234;-67
2023/12/07 01:09:13;;;;;;;0.00;0.00;;;3.00;99.90;;;;;;5099550;28;20252;-67
2023/12/07 01:11:39;;;;;;;0.52;0.52;;;3.00;99.90;;;;;;5112982;28;20613;-66
2023/12/07 01:14:05;;;;;;;0.20;0.20;;;3.00;99.90;;;;;;5105349;28;20240;-66
2023/12/07 01:16:31;;;;;;;0.00;0.00;;;3.00;99.90;;;;;;5095487;28;20187;-67
2023/12/07 01:18:57;;;;;;;0.00;0.00;;;3.00;99.90;;;;;;5111944;28;20215;-66
2023/12/07 01:21:23;;;;;;;0.13;0.13;;;3.00;99.90;;;;;;5108210;28;20565;-67
2023/12/07 01:23:49;;;;;;;0.00;0.00;;;3.00;99.90;;;;;;5099693;28;20233;-66
2023/12/07 01:26:14;;;;;;;0.00;0.00;;;3.00;99.90;;;;;;5096953;28;20282;-66
2023/12/07 01:28:40;;;;;;;0.00;0.00;;;3.00;99.90;;;;;;5109085;28;20171;-66
2023/12/07 01:31:05;;;;;;;0.08;0.08;;;3.00;99.90;;;;;;5097939;28;20195;-67
2023/12/07 01:33:31;;;;;;;0.00;0.00;;;3.00;99.90;;;;;;5103293;28;20292;-66
2023/12/07 01:35:56;;;;;;;0.00;0.00;;;3.10;99.90;;;;;;5092449;28;20224;-67
2023/12/07 01:38:22;;;;;;;0.00;0.00;;;3.10;99.90;;;;;;5107581;28;20662;-67
2023/12/07 01:40:48;;;;;;;0.00;0.00;;;3.00;99.90;;;;;;5092678;28;20187;-66
2023/12/07 01:43:14;;;;;;;0.00;0.00;;;3.00;99.90;;;;;;5098650;28;20179;-66
2023/12/07 01:45:39;;;;;;;0.00;0.00;;;3.00;99.90;;;;;;5101043;28;20180;-67
2023/12/07 01:48:06;;;;;;;0.00;0.00;;;2.90;99.90;;;;;;5106020;28;20289;-67
2023/12/07 01:50:33;;;;;;;0.00;0.00;;;2.90;99.90;;;;;;5111296;28;20183;-67
2023/12/07 01:53:01;;;;;;;0.00;0.00;;;2.80;99.90;;;;;;5096751;28;20204;-67
2023/12/07 01:55:28;;;;;;;0.00;0.00;;;2.80;99.90;;;;;;5092305;28;20184;-67
2023/12/07 01:57:54;;;;;;;0.00;0.00;;;2.80;99.90;;;;;;5103977;28;20183;-66
2023/12/07 02:00:20;;;;;;;0.00;0.00;;;2.80;99.90;;;;;;5096607;28;20172;-67
2023/12/07 02:02:47;;;;;;;0.00;0.00;;;2.80;99.90;;;;;;5102989;28;20644;-66
2023/12/07 02:05:13;;;;;;;0.00;0.00;;;2.80;99.90;;;;;;5103451;28;20194;-66
2023/12/07 02:07:41;;;;;;;0.00;0.00;;;2.80;99.90;;;;;;5102002;28;20183;-66
2023/12/07 02:10:07;;;;;;;0.00;0.00;;;2.80;99.90;;;;;;5092052;28;20237;-67
2023/12/07 02:12:34;;;;;;;0.10;0.10;;;2.80;99.90;;;;;;5091992;28;20219;-66
2023/12/07 02:15:01;;;;;;;0.13;0.13;;;2.80;99.90;;;;;;5100691;28;20186;-67
2023/12/07 02:18:08;;;;;;;0.10;0.05;;;2.80;99.90;;;;;;5099000;28;20240;-67
2023/12/07 02:20:36;;;;;;;0.00;0.00;;;2.80;99.90;;;;;;5012604;28;20290;-66
2023/12/07 02:23:06;;;;;;;0.17;0.10;;;2.80;99.90;;;;;;5076032;28;20192;-67
2023/12/07 02:25:51;;;;;;;0.00;0.00;;;2.80;99.90;;;;;;5091942;28;20194;-67
2023/12/07 02:28:17;;;;;;;0.00;0.00;;;2.70;99.90;;;;;;5092122;28;20196;-67
2023/12/07 02:30:43;;;;;;;0.10;0.10;;;2.70;99.90;;;;;;5091682;28;20187;-66
2023/12/07 02:33:09;;;;;;;0.10;0.10;;;2.70;99.90;;;;;;5091859;28;20212;-66
2023/12/07 02:35:36;;;;;;;0.00;0.00;;;2.70;99.90;;;;;;5091405;28;20293;-67
2023/12/07 02:38:02;;;;;;;0.13;0.13;;;2.70;99.90;;;;;;5091774;28;20663;-67
2023/12/07 02:40:28;;;;;;;0.00;0.00;;;2.60;99.90;;;;;;5090511;28;20188;-68
2023/12/07 02:42:55;;;;;;;0.00;0.00;;;2.60;99.90;;;;;;5091783;28;20272;-68
2023/12/07 02:45:21;;;;;;;0.00;0.00;;;2.60;99.90;;;;;;5098055;28;20241;-68
2023/12/07 02:47:47;;;;;;;0.25;0.20;;;2.60;99.90;;;;;;5099513;28;20176;-67
2023/12/07 02:50:13;;;;;;;0.00;0.00;;;2.50;99.90;;;;;;5099412;28;20202;-68
2023/12/07 02:52:39;;;;;;;0.00;0.00;;;2.50;99.90;;;;;;5111692;28;20222;-68
2023/12/07 02:55:05;;;;;;;0.03;0.03;;;2.50;99.90;;;;;;5095847;28;20175;-67
2023/12/07 02:57:33;;;;;;;0.00;0.00;;;2.40;99.90;;;;;;5099610;28;20300;-67
2023/12/07 02:59:59;;;;;;;0.00;0.00;;;2.40;99.90;;;;;;5106169;28;20246;-68
2023/12/07 03:02:24;;;;;;;0.00;0.00;;;2.40;99.90;;;;;;5099771;28;20280;-67
2023/12/07 03:04:50;;;;;;;0.00;0.00;;;2.30;99.90;;;;;;5111786;28;20192;-66
2023/12/07 03:07:15;;;;;;;0.00;0.00;;;2.30;99.90;;;;;;5095553;28;20259;-67
2023/12/07 03:09:41;;;;;;;0.00;0.00;;;2.20;99.90;;;;;;5102920;28;20651;-67
2023/12/07 03:12:07;;;;;;;0.00;0.00;;;2.20;99.90;;;;;;5104119;28;20674;-67
2023/12/07 03:14:32;;;;;;;0.70;0.20;;;2.10;99.90;;;;;;5100268;28;20176;-68
2023/12/07 03:16:58;;;;;;;0.00;0.00;;;2.10;99.90;;;;;;5110323;28;20528;-67
2023/12/07 03:19:24;;;;;;;0.00;0.00;;;2.00;99.90;;;;;;5104002;28;20620;-66
2023/12/07 03:21:49;;;;;;;0.00;0.00;;;2.00;99.90;;;;;;5095227;28;20187;-67
2023/12/07 03:24:15;;;;;;;0.13;0.13;;;2.00;99.90;;;;;;5106163;28;20649;-68
2023/12/07 03:26:40;;;;;;;0.00;0.00;;;1.90;99.90;;;;;;5115329;28;20195;-67
2023/12/07 03:29:06;;;;;;;0.00;0.00;;;1.90;99.90;;;;;;5110488;28;20184;-66
2023/12/07 03:31:32;;;;;;;0.00;0.00;;;1.90;99.90;;;;;;5094785;28;20277;-67
2023/12/07 03:33:59;;;;;;;0.10;0.10;;;1.80;99.90;;;;;;5094968;28;20222;-67
2023/12/07 03:36:24;;;;;;;0.20;0.20;;;1.70;99.90;;;;;;5094571;28;20237;-67
2023/12/07 03:38:50;;;;;;;0.00;0.00;;;1.70;99.90;;;;;;5093630;28;20258;-67
2023/12/07 03:41:16;;;;;;;0.00;0.00;;;1.70;99.90;;;;;;5094862;28;20164;-67
2023/12/07 03:43:41;;;;;;;0.00;0.00;;;1.70;99.90;;;;;;5094857;28;20327;-67
2023/12/07 03:46:07;;;;;;;0.00;0.00;;;1.60;99.90;;;;;;5104954;28;20178;-67
2023/12/07 03:48:34;;;;;;;0.00;0.00;;;1.60;99.90;;;;;;5113280;28;20232;-67
2023/12/07 03:50:59;;;;;;;0.00;0.00;;;1.50;99.90;;;;;;5096884;28;20698;-67
2023/12/07 03:53:25;;;;;;;0.03;0.03;;;1.50;99.90;;;;;;5098926;28;20176;-67
2023/12/07 03:55:50;;;;;;;0.00;0.00;;;1.40;99.90;;;;;;5113163;28;20179;-67
2023/12/07 03:58:16;;;;;;;0.05;0.05;;;1.40;99.90;;;;;;5103129;28;20195;-67
2023/12/07 04:00:42;;;;;;;0.00;0.00;;;1.40;99.90;;;;;;5109646;28;20175;-68
2023/12/07 04:03:08;;;;;;;0.00;0.00;;;1.30;99.90;;;;;;5095750;28;20190;-67
2023/12/07 04:05:33;;;;;;;0.10;0.10;;;1.30;99.90;;;;;;5095500;28;20172;-67
2023/12/07 04:07:59;;;;;;;0.00;0.00;;;1.20;99.90;;;;;;5098251;28;20184;-67
2023/12/07 04:10:24;;;;;;;0.00;0.00;;;1.20;99.90;;;;;;5093058;28;20237;-67
2023/12/07 04:12:52;;;;;;;0.05;0.05;;;1.20;99.90;;;;;;5095460;28;20212;-67
2023/12/07 04:15:18;;;;;;;0.40;0.35;;;1.20;99.90;;;;;;5107526;28;20278;-67
2023/12/07 04:17:44;;;;;;;0.13;0.13;;;1.20;99.90;;;;;;5101932;28;20185;-67
2023/12/07 04:20:10;;;;;;;0.00;0.00;;;1.20;99.90;;;;;;5112361;28;20240;-68
2023/12/07 04:22:35;;;;;;;0.00;0.00;;;1.20;99.90;;;;;;5114091;28;20179;-67
2023/12/07 04:25:01;;;;;;;0.00;0.00;;;1.10;99.90;;;;;;5097133;28;20188;-67
2023/12/07 04:27:26;;;;;;;0.00;0.00;;;1.10;99.90;;;;;;5093851;28;20176;-67
2023/12/07 04:29:52;;;;;;;0.00;0.00;;;1.10;99.90;;;;;;5093937;28;20674;-67
2023/12/07 04:32:17;;;;;;;0.00;0.00;;;1.10;99.90;;;;;;5093567;28;20671;-66
2023/12/07 04:34:43;;;;;;;0.00;0.00;;;1.10;99.90;;;;;;5097307;28;20220;-67
2023/12/07 04:37:08;;;;;;;0.00;0.00;;;1.10;99.90;;;;;;5107528;28;20249;-67
2023/12/07 04:39:34;;;;;;;0.00;0.00;;;1.10;99.90;;;;;;5110535;28;20392;-67
2023/12/07 04:42:00;;;;;;;0.08;0.08;;;1.10;99.90;;;;;;5108835;28;20290;-68
2023/12/07 04:44:26;;;;;;;0.00;0.00;;;1.00;99.90;;;;;;5093971;28;20184;-65
2023/12/07 04:46:51;;;;;;;0.00;0.00;;;1.00;99.90;;;;;;5107150;28;20202;-65
2023/12/07 04:49:17;;;;;;;0.75;0.22;;;1.00;99.90;;;;;;5113409;28;20183;-70
2023/12/07 04:51:46;;;;;;;0.00;0.00;;;1.00;99.90;;;;;;5113635;28;20200;-69
2023/12/07 04:54:12;;;;;;;0.10;0.10;;;1.00;99.90;;;;;;5106088;28;20639;-67
2023/12/07 04:56:39;;;;;;;0.00;0.00;;;1.00;99.90;;;;;;5093561;28;20206;-69
2023/12/07 04:59:04;;;;;;;0.00;0.00;;;1.00;99.90;;;;;;5093732;28;20184;-68
2023/12/07 05:01:30;;;;;;;0.00;0.00;;;0.90;99.90;;;;;;5094289;28;20643;-68
2023/12/07 05:03:55;;;;;;;0.10;0.10;;;0.90;99.90;;;;;;5091873;28;21075;-69
2023/12/07 05:06:21;;;;;;;0.00;0.00;;;0.90;99.90;;;;;;5092987;28;20184;-68
2023/12/07 05:08:46;;;;;;;0.15;0.15;;;0.90;99.90;;;;;;5093165;28;20172;-67
2023/12/07 05:11:12;;;;;;;0.22;0.22;;;0.90;99.90;;;;;;5104826;28;20222;-67
2023/12/07 05:13:37;;;;;;;0.10;0.10;;;0.90;99.90;;;;;;5110369;28;20215;-67
2023/12/07 05:16:03;;;;;;;0.17;0.17;;;0.80;99.90;;;;;;5106255;28;20310;-67
2023/12/07 05:18:29;;;;;;;0.00;0.00;;;0.80;99.90;;;;;;5112676;27;20232;-67
2023/12/07 05:20:54;;;;;;;0.00;0.00;;;0.80;99.90;;;;;;5112601;28;20731;-67
2023/12/07 05:23:20;;;;;;;0.00;0.00;;;0.70;99.90;;;;;;5112593;28;20187;-67
2023/12/07 05:25:45;;;;;;;0.00;0.00;;;0.70;99.90;;;;;;5112794;28;20198;-67
2023/12/07 05:28:11;;;;;;;0.00;0.00;;;0.70;99.90;;;;;;5112879;28;20552;-67
2023/12/07 05:30:37;;;;;;;0.00;0.00;;;0.70;99.90;;;;;;5111554;28;20186;-69
2023/12/07 05:33:02;;;;;;;0.00;0.00;;;0.70;99.90;;;;;;5112786;28;20215;-68
2023/12/07 05:35:28;;;;;;;0.00;0.00;;;0.60;99.90;;;;;;5111949;28;20179;-68
2023/12/07 05:37:53;;;;;;;0.10;0.10;;;0.60;99.90;;;;;;5112713;28;20199;-68
2023/12/07 05:40:19;;;;;;;0.00;0.00;;;0.60;99.90;;;;;;5112604;28;20315;-68
2023/12/07 05:42:49;;;;;;;0.08;0.08;;;0.60;99.90;;;;;;5096793;28;20196;-68
2023/12/07 05:45:14;;;;;;;0.00;0.00;;;0.60;99.90;;;;;;5092471;28;20549;-68
2023/12/07 05:47:40;;;;;;;0.00;0.00;;;0.60;99.90;;;;;;5111218;28;20175;-68
2023/12/07 05:50:06;;;;;;;0.10;0.10;;;0.50;99.90;;;;;;5112318;28;20187;-68
2023/12/07 05:52:32;;;;;;;0.00;0.00;;;0.50;99.90;;;;;;5112414;28;20592;-68
2023/12/07 05:54:57;;;;;;;0.00;0.00;;;0.50;99.90;;;;;;5112302;28;20187;-67
2023/12/07 05:57:23;;;;;;;0.00;0.00;;;0.50;99.90;;;;;;5112038;28;20705;-66
2023/12/07 05:59:48;;;;;;;0.63;0.63;;;0.50;99.90;;;;;;5111965;28;20592;-67
2023/12/07 06:02:14;;;;;;;0.10;0.10;;;0.50;99.90;;;;;;5112011;28;20230;-67
2023/12/07 06:04:40;;;;;;;0.10;0.10;;;0.40;99.90;;;;;;5102123;28;20271;-67
2023/12/07 06:07:06;;;;;;;0.10;0.10;;;0.40;99.90;;;;;;5105591;28;20191;-68
2023/12/07 06:09:31;;;;;;;0.00;0.00;;;0.40;99.90;;;;;;5099084;28;20172;-67
2023/12/07 06:11:57;;;;;;;0.03;0.03;;;0.40;99.90;;;;;;5100576;28;20204;-67
2023/12/07 06:14:25;;;;;;;0.13;0.13;;;0.40;99.90;;;;;;5110966;28;20179;-66
2023/12/07 06:16:51;;;;;;;0.00;0.00;;;0.30;99.90;;;;;;5105054;28;20209;-66
2023/12/07 06:19:16;;;;;;;0.00;0.00;;;0.30;99.90;;;;;;5110305;28;20213;-66
2023/12/07 06:21:44;;;;;;;0.00;0.00;;;0.30;99.90;;;;;;5095587;28;20229;-67
2023/12/07 06:24:09;;;;;;;0.00;0.00;;;0.30;99.90;;;;;;5107232;28;20180;-66
2023/12/07 06:26:35;;;;;;;0.00;0.00;;;0.30;99.90;;;;;;5100987;28;20548;-66
2023/12/07 06:29:01;;;;;;;0.20;0.20;;;0.30;99.90;;;;;;5098923;28;20590;-66
2023/12/07 06:31:26;;;;;;;0.00;0.00;;;0.30;99.90;;;;;;5098052;28;20751;-67
2023/12/07 06:33:52;;;;;;;0.00;0.00;;;0.30;99.90;;;;;;5100594;28;20171;-67
2023/12/07 06:36:19;;;;;;;0.00;0.00;;;0.30;99.90;;;;;;5111937;28;20215;-67
2023/12/07 06:38:45;;;;;;;0.00;0.00;;;0.30;99.90;;;;;;5098802;28;20229;-67
2023/12/07 06:41:10;;;;;;;0.00;0.00;;;0.30;99.90;;;;;;5091827;28;20168;-67
2023/12/07 06:43:36;;;;;;;0.00;0.00;;;0.30;99.90;;;;;;5091727;28;20648;-66
2023/12/07 06:46:01;;;;;;;0.00;0.00;;;0.20;99.90;;;;;;5091522;28;20184;-66
2023/12/07 06:48:27;;;;;;;0.08;0.08;;;0.20;99.90;;;;;;5091500;28;20576;-66
2023/12/07 06:50:52;;;;;;;0.00;0.00;;;0.30;99.90;;;;;;5090179;28;20214;-67
2023/12/07 06:53:18;;;;;;;0.10;0.10;;;0.20;99.90;;;;;;5091621;28;20191;-67
2023/12/07 06:55:44;;;;;;;0.17;0.17;;;0.30;99.90;;;;;;5091695;28;20180;-66
2023/12/07 06:58:09;;;;;;;0.00;0.00;;;0.20;99.90;;;;;;5090195;28;20206;-66
2023/12/07 07:00:36;;;;;;;0.20;0.17;;;0.20;99.90;;;;;;5091485;28;20176;-66
2023/12/07 07:03:01;;;;;;;0.10;0.10;;;0.20;99.90;;;;;;5090211;28;20192;-66
2023/12/07 07:05:27;;;;;;;0.00;0.00;;;0.20;99.90;;;;;;5090037;28;20176;-66
2023/12/07 07:07:55;;;;;;;0.10;0.10;;;0.20;99.90;;;;;;5102444;28;20179;-66
2023/12/07 07:10:20;;;;;;;0.20;0.20;;;0.10;99.90;;;;;;5109793;28;20245;-67
2023/12/07 07:12:46;;;;;;;0.00;0.00;;;0.10;99.90;;;;;;5096226;28;20671;-67
2023/12/07 07:15:11;;;;;;;2.83;0.32;;;0.10;99.90;;;;;;5101116;28;20248;-66
2023/12/07 07:17:37;;;;;;;0.10;0.10;;;0.10;99.90;;;;;;5111784;28;20223;-67
2023/12/07 07:20:03;;;;;;;0.05;0.05;;;0.10;99.90;;;;;;5104120;28;20176;-67
2023/12/07 07:22:28;;;;;;;0.00;0.00;;;0.10;99.90;;;;;;5091383;28;20191;-66
2023/12/07 07:24:54;;;;;;;0.00;0.00;;;0.20;99.90;;;;;;5102641;28;20530;-66
2023/12/07 07:27:19;;;;;;;0.20;0.20;;;0.10;99.90;;;;;;5096060;28;20188;-67
2023/12/07 07:29:46;;;;;;;0.20;0.20;;;0.10;99.90;;;;;;5098704;28;20168;-67
2023/12/07 07:32:11;;;;;;;0.37;0.37;;;0.20;99.90;;;;;;5107948;28;20211;-66
2023/12/07 07:34:37;;;;;;;0.40;0.40;;;0.10;99.90;;;;;;5108599;28;20175;-67
2023/12/07 07:37:03;;;;;;;0.00;0.00;;;0.20;99.90;;;;;;5090439;28;20269;-68
2023/12/07 07:39:28;;;;;;;0.32;0.32;;;0.20;99.90;;;;;;5095115;28;20204;-67
2023/12/07 07:41:54;;;;;;;0.13;0.13;;;0.20;99.90;;;;;;5094955;28;20233;-67
2023/12/07 07:44:19;;;;;;;0.00;0.00;;;0.30;99.90;;;;;;5094937;28;20160;-66
2023/12/07 07:46:46;;;;;;;0.00;0.00;;;0.30;99.90;;;;;;5109849;28;21437;-66
2023/12/07 07:49:11;;;;;;;0.20;0.10;;;0.30;99.90;;;;;;5093573;28;20628;-66
2023/12/07 07:51:38;;;;;;;0.05;0.05;;;0.40;99.90;;;;;;5094852;28;20211;-66
2023/12/07 07:54:04;;;;;;;2.20;0.77;;;0.40;99.90;;;;;;5094734;28;20176;-66
2023/12/07 07:56:29;;;;;;;0.00;0.00;;;0.50;99.90;;;;;;5094822;28;20246;-66
2023/12/07 07:58:55;;;;;;;1.13;1.10;;;0.50;99.90;;;;;;5094581;28;20203;-65
2023/12/07 08:01:21;;;;;;;0.70;0.70;;;0.60;99.90;;;;;;5093385;28;20165;-66
2023/12/07 08:03:46;;;;;;;0.10;0.10;;;0.60;99.90;;;;;;5094558;28;20203;-66
2023/12/07 08:06:12;;;;;;;0.05;0.05;;;0.70;99.90;;;;;;5094389;28;20302;-66
2023/12/07 08:08:37;;;;;;;0.00;0.00;;;0.80;99.90;;;;;;5094595;28;20183;-67
2023/12/07 08:11:05;;;;;;;0.00;0.00;;;0.80;99.90;;;;;;5094422;28;20176;-66
2023/12/07 08:13:30;;;;;;;0.05;0.05;;;0.90;99.90;;;;;;5096323;28;20192;-66
2023/12/07 08:15:56;;;;;;;0.10;0.10;;;0.90;99.90;;;;;;5103471;28;20186;-66
2023/12/07 08:18:22;;;;;;;0.00;0.00;;;1.00;99.90;;;;;;5093105;28;20176;-66
2023/12/07 08:20:47;;;;;;;0.00;0.00;;;1.10;99.90;;;;;;5094388;28;20529;-66
2023/12/07 08:23:13;;;;;;;0.45;0.45;;;1.20;99.90;;;;;;5096398;28;20199;-66
2023/12/07 08:25:40;;;;;;;0.00;0.00;;;1.20;99.90;;;;;;5114608;28;20175;-67
2023/12/07 08:28:05;;;;;;;0.08;0.08;;;1.30;99.90;;;;;;5113053;28;20167;-67
2023/12/07 08:30:31;;;;;;;0.00;0.00;;;1.30;99.90;;;;;;5114399;28;20202;-66
2023/12/07 08:32:56;;;;;;;0.00;0.00;;;1.40;99.90;;;;;;5113030;28;20223;-67
2023/12/07 08:35:23;;;;;;;0.20;0.20;;;1.40;99.90;;;;;;5109631;28;20195;-67
2023/12/07 08:37:48;;;;;;;0.00;0.00;;;1.50;99.90;;;;;;5093541;28;20192;-67
2023/12/07 08:40:15;;;;;;;0.20;0.20;;;1.60;99.90;;;;;;5092944;28;20176;-66
2023/12/07 08:42:41;;;;;;;0.00;0.00;;;1.60;99.90;;;;;;5100195;28;20585;-67
2023/12/07 08:45:06;;;;;;;0.15;0.15;;;1.60;99.90;;;;;;5109058;28;20274;-67
2023/12/07 08:47:34;;;;;;;0.17;0.17;;;1.50;99.90;;;;;;5096746;28;20176;-67
2023/12/07 08:49:59;;;;;;;0.00;0.00;;;1.50;99.90;;;;;;5106033;28;20183;-68
2023/12/07 08:52:25;;;;;;;0.00;0.00;;;1.50;99.90;;;;;;5096249;28;20569;-68
2023/12/07 08:54:50;;;;;;;0.20;0.20;;;1.50;99.90;;;;;;5111181;28;20510;-68
2023/12/07 08:57:18;;;;;;;0.05;0.05;;;1.70;99.90;;;;;;5102912;28;20258;-68
2023/12/07 08:59:43;;;;;;;0.60;0.60;;;1.70;99.90;;;;;;5106203;28;20179;-67
2023/12/07 09:02:09;;;;;;;0.00;0.00;;;1.80;99.90;;;;;;5106607;28;20184;-67
2023/12/07 09:04:34;;;;;;;0.00;0.00;;;1.90;99.90;;;;;;5093412;28;20199;-68
2023/12/07 09:07:00;;;;;;;0.85;0.85;;;1.90;99.90;;;;;;5101315;28;20682;-66
2023/12/07 09:09:25;;;;;;;0.00;0.00;;;1.90;99.90;;;;;;5093949;28;20180;-67
2023/12/07 09:11:51;;;;;;;0.15;0.15;;;1.90;99.90;;;;;;5093504;28;20212;-67
2023/12/07 09:14:16;;;;;;;0.10;0.10;;;1.90;99.90;;;;;;5101501;28;20172;-67
2023/12/07 09:16:46;;;;;;;0.00;0.00;;;2.00;99.90;;;;;;5112089;28;20507;-67
2023/12/07 09:19:13;;;;;;;0.05;0.05;;;2.10;99.90;;;;;;5105333;28;20682;-67
2023/12/07 09:21:39;;;;;;;0.22;0.22;;;2.20;99.90;;;;;;5093201;28;20243;-65
2023/12/07 09:24:06;;;;;;;0.13;0.13;;;2.40;99.90;;;;;;5093202;28;20551;-66
2023/12/07 09:26:32;;;;;;;0.00;0.00;;;2.50;99.90;;;;;;5092994;28;20669;-66
2023/12/07 09:28:57;;;;;;;0.00;0.00;;;2.60;99.90;;;;;;5093288;28;20172;-66
2023/12/07 09:31:23;;;;;;;0.00;0.00;;;2.70;99.90;;;;;;5092800;28;20256;-66
2023/12/07 09:33:48;;;;;;;0.10;0.10;;;2.80;99.90;;;;;;5092880;28;20219;-66
2023/12/07 09:36:18;;;;;;;0.30;0.30;;;3.00;99.90;;;;;;5092790;28;20303;-66
2023/12/07 09:38:44;;;;;;;0.00;0.00;;;3.10;99.90;;;;;;5092913;28;20176;-66
2023/12/07 09:41:10;;;;;;;0.00;0.00;;;3.20;99.90;;;;;;5092771;28;20172;-66
2023/12/07 09:43:36;;;;;;;0.00;0.00;;;3.30;99.90;;;;;;5092821;28;20184;-67
2023/12/07 09:46:02;;;;;;;0.00;0.00;;;3.40;99.90;;;;;;5092673;28;20176;-68
2023/12/07 09:48:28;;;;;;;0.00;0.00;;;3.50;99.90;;;;;;5092812;28;20179;-68
2023/12/07 09:50:56;;;;;;;0.00;0.00;;;3.60;99.90;;;;;;5092707;28;20180;-67
2023/12/07 09:53:22;;;;;;;0.00;0.00;;;3.70;99.90;;;;;;5092521;28;20188;-67
2023/12/07 09:55:47;;;;;;;0.10;0.10;;;3.80;99.90;;;;;;5092478;28;20168;-67
2023/12/07 09:58:13;;;;;;;0.00;0.00;;;3.80;99.90;;;;;;5074426;28;20176;-67
2023/12/07 10:00:39;;;;;;;0.00;0.00;;;3.90;99.90;;;;;;5093118;28;20171;-67
2023/12/07 10:03:09;;;;;;;0.00;0.00;;;4.00;99.90;;;;;;5098480;28;20654;-65
2023/12/07 10:05:52;;;;;;;0.00;0.00;;;4.00;99.90;;;;;;5112777;28;20643;-65
2023/12/07 10:08:29;;;;;;;0.00;0.00;;;4.10;99.90;;;;;;5096395;28;20184;-64
2023/12/07 10:11:08;;;;;;;0.08;0.08;;;4.20;99.90;;;;;;5092534;28;20180;-65
2023/12/07 10:13:35;;;;;;;0.00;0.00;;;4.30;99.90;;;;;;5094543;28;20190;-66
2023/12/07 10:16:12;;;;;;;0.00;0.00;;;4.60;99.90;;;;;;5112696;28;20183;-65
2023/12/07 10:18:40;;;;;;;0.00;0.00;;;4.90;99.90;;;;;;5111617;28;20167;-66
2023/12/07 10:21:09;;;;;;;0.00;0.00;;;5.10;99.90;;;;;;5092109;28;20570;-63
2023/12/07 10:23:40;;;;;;;0.28;0.28;;;5.20;99.90;;;;;;5092171;28;20267;-64
2023/12/07 10:26:06;;;;;;;0.00;0.00;;;5.30;99.90;;;;;;5091945;28;20172;-65
2023/12/07 10:28:37;;;;;;;0.10;0.10;;;5.20;99.90;;;;;;5092085;28;20183;-66
2023/12/07 10:31:03;;;;;;;0.00;0.00;;;5.20;99.90;;;;;;5091882;28;20172;-66
2023/12/07 10:33:28;;;;;;;0.15;0.15;;;5.20;99.90;;;;;;5091878;28;20187;-66
2023/12/07 10:35:54;;;;;;;0.20;0.20;;;5.20;99.90;;;;;;5091715;28;20219;-66
2023/12/07 10:38:21;;;;;;;0.25;0.25;;;5.10;99.90;;;;;;5091981;28;20196;-66
2023/12/07 10:40:47;;;;;;;0.00;0.00;;;5.10;99.90;;;;;;5092505;28;20252;-67
2023/12/07 10:43:15;;;;;;;0.00;0.00;;;5.10;99.90;;;;;;5103887;28;20183;-67
2023/12/07 10:45:43;;;;;;;0.05;0.05;;;5.20;99.90;;;;;;5112263;28;20177;-67
2023/12/07 10:48:09;;;;;;;0.00;0.00;;;5.20;99.90;;;;;;5092545;28;20172;-67
2023/12/07 10:50:41;;;;;;;0.00;0.00;;;5.30;99.90;;;;;;5091871;28;20179;-64
2023/12/07 10:53:25;;;;;;;0.00;0.00;;;5.40;99.90;;;;;;5091630;28;20328;-67
2023/12/07 10:55:55;;;;;;;0.00;0.00;;;5.50;99.90;;;;;;5091744;28;20168;-66
2023/12/07 10:58:24;;;;;;;0.00;0.00;;;5.50;99.90;;;;;;5094396;28;20178;-67
2023/12/07 11:00:52;;;;;;;0.30;0.30;;;5.60;99.90;;;;;;5112194;28;20179;-67
2023/12/07 11:03:17;;;;;;;0.10;0.10;;;5.70;99.90;;;;;;5111930;28;20164;-67
2023/12/07 11:05:46;;;;;;;0.00;0.00;;;5.80;99.90;;;;;;5110773;28;20224;-66
2023/12/07 11:08:27;;;;;;;0.28;0.10;;;6.00;99.90;;;;;;5101268;28;20191;-67
2023/12/07 11:11:06;;;;;;;0.00;0.00;;;6.10;99.90;;;;;;5091591;28;20727;-67
2023/12/07 11:13:35;;;;;;;0.00;0.00;;;6.20;99.90;;;;;;5095261;28;20233;-67
2023/12/07 11:16:02;;;;;;;0.00;0.00;;;6.30;99.90;;;;;;5113329;28;20692;-66
2023/12/07 11:18:28;;;;;;;0.00;0.00;;;6.30;99.90;;;;;;5108019;28;20510;-65
2023/12/07 11:20:55;;;;;;;0.00;0.00;;;6.40;99.90;;;;;;5095531;28;20664;-67
2023/12/07 11:23:21;;;;;;;0.00;0.00;;;6.40;99.90;;;;;;5101244;28;20522;-66
2023/12/07 11:25:48;;;;;;;0.00;0.00;;;6.50;99.90;;;;;;5115811;28;20167;-67
2023/12/07 11:28:14;;;;;;;0.10;0.10;;;6.50;99.90;;;;;;5115722;28;20589;-66
2023/12/07 11:30:43;;;;;;;0.00;0.00;;;6.60;99.90;;;;;;5115669;28;20658;-66
2023/12/07 11:33:10;;;;;;;0.00;0.00;;;6.50;99.90;;;;;;5109980;27;20216;-66
2023/12/07 11:36:02;;;;;;;0.00;0.00;;;6.50;99.90;;;;;;5097213;28;20172;-66
2023/12/07 11:38:27;;;;;;;0.28;0.28;;;6.40;99.90;;;;;;5099267;28;20643;-66
2023/12/07 11:40:55;;;;;;;0.00;0.00;;;6.30;99.90;;;;;;5094781;28;20198;-66
2023/12/07 11:43:33;;;;;;;0.00;0.00;;;6.30;99.90;;;;;;5094947;28;20179;-66
2023/12/07 11:45:59;;;;;;;0.05;0.05;;;6.30;99.90;;;;;;5094743;28;20212;-66
2023/12/07 11:48:25;;;;;;;0.00;0.00;;;6.40;99.90;;;;;;5095052;28;20180;-65
2023/12/07 11:51:03;;;;;;;0.00;0.00;;;6.50;99.90;;;;;;5106189;28;20187;-65
2023/12/07 11:53:30;;;;;;;0.00;0.00;;;6.50;99.90;;;;;;5094836;28;20191;-66
2023/12/07 11:55:57;;;;;;;0.30;0.30;;;6.60;99.90;;;;;;5107752;28;20222;-66
2023/12/07 11:58:27;;;;;;;0.00;0.00;;;6.50;99.90;;;;;;5096891;28;20183;-66
2023/12/07 12:00:53;;;;;;;0.00;0.00;;;6.50;99.90;;;;;;5115136;28;20256;-67
2023/12/07 12:03:20;;;;;;;0.00;0.00;;;6.50;99.90;;;;;;5114947;28;20175;-66
2023/12/07 12:05:46;;;;;;;0.35;0.35;;;6.50;99.90;;;;;;5113703;28;20183;-66
2023/12/07 12:08:12;;;;;;;0.00;0.00;;;6.50;99.90;;;;;;5100933;28;20404;-67
2023/12/07 12:10:42;;;;;;;0.00;0.00;;;6.50;99.90;;;;;;5094604;28;20203;-66
2023/12/07 12:13:08;;;;;;;0.00;0.00;;;6.50;99.90;;;;;;5094353;28;20208;-66
2023/12/07 12:15:34;;;;;;;0.00;0.00;;;6.40;99.90;;;;;;5112245;28;20692;-65
2023/12/07 12:18:00;;;;;;;0.00;0.00;;;6.20;99.90;;;;;;5107995;28;20242;-66
2023/12/07 12:20:27;;;;;;;0.00;0.00;;;6.20;99.90;;;;;;5093231;28;20590;-66
2023/12/07 12:22:55;;;;;;;0.00;0.00;;;6.10;99.90;;;;;;5093820;28;20648;-66
2023/12/07 12:25:25;;;;;;;0.00;0.00;;;6.00;99.90;;;;;;5097357;28;20612;-67
2023/12/07 12:27:55;;;;;;;0.00;0.00;;;6.00;99.90;;;;;;5102209;28;20531;-67
2023/12/07 12:30:24;;;;;;;0.00;0.00;;;6.00;99.90;;;;;;5105276;28;20201;-66
2023/12/07 12:32:50;;;;;;;0.00;0.00;;;5.90;99.90;;;;;;5097672;28;20216;-66
2023/12/07 12:35:17;;;;;;;0.00;0.00;;;5.90;99.90;;;;;;5105832;28;20723;-66
2023/12/07 12:37:46;;;;;;;0.30;0.30;;;5.90;99.90;;;;;;5100812;28;20219;-65
2023/12/07 12:40:15;;;;;;;0.00;0.00;;;5.90;99.90;;;;;;5103417;28;20187;-66
2023/12/07 12:42:44;;;;;;;0.00;0.00;;;5.90;99.90;;;;;;5113282;28;20593;-66
2023/12/07 12:45:12;;;;;;;0.00;0.00;;;5.80;99.90;;;;;;5108696;28;20516;-66
2023/12/07 12:47:38;;;;;;;0.00;0.00;;;5.80;99.90;;;;;;5094043;28;20251;-66
2023/12/07 12:50:04;;;;;;;0.00;0.00;;;5.80;99.90;;;;;;5094181;28;20659;-66
2023/12/07 12:52:31;;;;;;;0.00;0.00;;;5.70;99.90;;;;;;5093990;28;20230;-66
2023/12/07 12:54:57;;;;;;;0.00;0.00;;;5.70;99.90;;;;;;5093823;28;20194;-67